Time;durP1;ratioP1;P1;durP2;ratioP2;P2;SDS_P1;SDS_P2;PMS_P1;PMS_P2;Temp;Humidity;BMP_temperature;BMP_pressure;BME280_temperature;BME280_humidity;BME280_pressure;Samples;Min_cycle;Max_cycle;Signal;HPM_P1;HPM_P2
2022/03/30 00:01:26;;;;;;;;;63.50;48.50;;;;;13.99;62.34;99884.84;5055425;28;45228;-53
2022/03/30 00:03:51;;;;;;;;;59.75;47.75;;;;;13.96;62.60;99864.56;5055793;28;45488;-55
2022/03/30 00:06:17;;;;;;;;;55.00;43.25;;;;;13.99;63.19;99880.34;5054579;28;46194;-54
2022/03/30 00:08:42;;;;;;;;;55.75;45.25;;;;;13.97;62.58;99882.31;5055214;28;45393;-54
2022/03/30 00:11:09;;;;;;;;;61.25;45.00;;;;;13.97;62.99;99881.47;5054580;28;45379;-54
2022/03/30 00:13:38;;;;;;;;;58.50;44.75;;;;;13.92;63.00;99873.78;5038615;28;45538;-55
2022/03/30 00:16:05;;;;;;;;;56.25;45.25;;;;;13.93;63.32;99867.47;5054047;28;46328;-56
2022/03/30 00:18:31;;;;;;;;;56.00;45.50;;;;;13.93;63.12;99874.63;5035854;28;45402;-55
2022/03/30 00:20:57;;;;;;;;;58.00;46.00;;;;;13.93;62.85;99872.81;5037096;28;45479;-54
2022/03/30 00:23:22;;;;;;;;;57.50;44.75;;;;;13.86;62.95;99867.13;5053734;28;45681;-52
2022/03/30 00:25:47;;;;;;;;;57.25;46.00;;;;;13.87;63.83;99865.31;5042967;28;46352;-51
2022/03/30 00:28:13;;;;;;;;;56.25;44.75;;;;;13.83;63.73;99866.53;5052596;28;45561;-52
2022/03/30 00:30:39;;;;;;;;;58.00;45.00;;;;;13.78;63.92;99866.03;5055539;28;45344;-52
2022/03/30 00:33:04;;;;;;;;;56.75;47.00;;;;;13.68;64.49;99844.59;5055793;28;45418;-56
2022/03/30 00:35:30;;;;;;;;;58.00;45.75;;;;;13.75;64.20;99867.16;5055059;28;45562;-53
2022/03/30 00:37:55;;;;;;;;;62.75;49.25;;;;;13.73;64.84;99863.75;5037616;28;45428;-56
2022/03/30 00:40:21;;;;;;;;;63.75;47.50;;;;;13.60;64.28;99847.00;5056834;28;45402;-51
2022/03/30 00:42:47;;;;;;;;;59.50;45.75;;;;;13.64;64.70;99851.13;5059596;28;45398;-54
2022/03/30 00:45:14;;;;;;;;;58.50;44.50;;;;;13.62;65.28;99855.75;5039620;28;47752;-55
2022/03/30 00:47:41;;;;;;;;;57.50;44.25;;;;;13.62;64.49;99846.88;5058695;28;45262;-56
2022/03/30 00:50:09;;;;;;;;;66.25;47.50;;;;;13.60;64.85;99847.00;5058871;28;45303;-56
2022/03/30 00:52:34;;;;;;;;;64.25;48.75;;;;;13.55;64.43;99834.03;5058959;28;45730;-55
2022/03/30 00:55:01;;;;;;;;;59.25;47.00;;;;;13.58;65.02;99833.78;5040908;28;46207;-51
2022/03/30 00:57:29;;;;;;;;;61.00;46.25;;;;;13.60;64.55;99835.47;5058717;28;45484;-54
2022/03/30 00:59:56;;;;;;;;;57.50;47.50;;;;;13.56;65.01;99834.88;5058501;28;45319;-50
2022/03/30 01:02:23;;;;;;;;;56.25;48.00;;;;;13.53;64.89;99830.63;5041165;28;45308;-52
2022/03/30 01:04:49;;;;;;;;;55.75;43.50;;;;;13.53;65.32;99829.75;5057179;28;46618;-51
2022/03/30 01:07:15;;;;;;;;;58.50;47.75;;;;;13.56;65.01;99829.53;5057514;28;45414;-53
2022/03/30 01:09:40;;;;;;;;;62.00;47.25;;;;;13.56;65.13;99834.88;5053492;28;45481;-54
2022/03/30 01:12:08;;;;;;;;;58.50;46.50;;;;;13.57;65.25;99820.56;5058763;28;45413;-52
2022/03/30 01:14:35;;;;;;;;;62.00;50.00;;;;;13.56;65.58;99813.50;5040048;28;47829;-53
2022/03/30 01:17:01;;;;;;;;;63.50;50.00;;;;;13.52;66.12;99818.22;5057696;28;45392;-52
2022/03/30 01:19:32;;;;;;;;;58.25;45.50;;;;;13.49;65.72;99810.47;5047247;28;45510;-50
2022/03/30 01:21:59;;;;;;;;;64.50;51.00;;;;;13.43;65.39;99794.09;5057947;28;45391;-54
2022/03/30 01:24:25;;;;;;;;;58.25;48.50;;;;;13.43;65.35;99794.09;5057269;28;46376;-52
2022/03/30 01:26:50;;;;;;;;;61.75;49.75;;;;;13.42;66.21;99790.59;5057748;28;45328;-54
2022/03/30 01:34:44;;;;;;;;;62.75;49.75;;;;;13.46;66.90;99794.69;5057654;28;45769;-55
2022/03/30 01:37:11;;;;;;;;;64.50;50.00;;;;;13.39;66.07;99792.63;5056397;28;45563;-57
2022/03/30 01:39:37;;;;;;;;;66.25;51.75;;;;;13.37;66.49;99789.25;5040525;28;45403;-50
2022/03/30 01:42:03;;;;;;;;;61.75;51.50;;;;;13.32;66.00;99778.94;5058123;28;45311;-53
2022/03/30 01:44:29;;;;;;;;;65.25;49.50;;;;;13.34;66.52;99777.00;5056395;28;45546;-54
2022/03/30 01:46:54;;;;;;;;;56.50;45.00;;;;;13.41;65.97;99780.00;5039512;28;45825;-54
2022/03/30 01:49:21;;;;;;;;;66.50;52.00;;;;;13.38;66.11;99783.78;5039961;28;45392;-55
2022/03/30 01:51:54;;;;;;;;;65.75;50.50;;;;;13.40;65.85;99776.47;5057097;28;45353;-55
2022/03/30 01:54:22;;;;;;;;;56.00;45.50;;;;;13.38;67.04;99786.44;5055943;28;45446;-55
2022/03/30 01:56:49;;;;;;;;;61.50;48.50;;;;;13.32;66.82;99778.09;5057555;28;45359;-51
2022/03/30 01:59:16;;;;;;;;;64.50;53.00;;;;;13.29;66.66;99768.50;5038995;28;45261;-52
2022/03/30 02:01:42;;;;;;;;;66.00;52.75;;;;;13.26;66.30;99768.72;5056994;28;45334;-52
2022/03/30 02:04:09;;;;;;;;;54.75;46.75;;;;;13.35;67.11;99773.34;5057546;28;45440;-56
2022/03/30 02:06:37;;;;;;;;;64.00;51.50;;;;;13.34;66.59;99771.66;5057450;28;45445;-54
2022/03/30 02:09:05;;;;;;;;;62.75;49.00;;;;;13.26;66.61;99752.72;5039079;28;45419;-55
2022/03/30 02:11:31;;;;;;;;;65.75;47.25;;;;;13.33;67.14;99764.63;5056584;28;45323;-55
2022/03/30 02:13:57;;;;;;;;;67.00;52.50;;;;;13.31;66.82;99763.88;5035532;28;46959;-51
2022/03/30 02:16:24;;;;;;;;;64.75;50.75;;;;;13.31;66.53;99753.22;5056325;28;45292;-52
2022/03/30 02:18:50;;;;;;;;;64.75;49.50;;;;;13.30;66.94;99756.84;5056939;28;45466;-53
2022/03/30 02:21:15;;;;;;;;;70.75;53.00;;;;;13.23;66.69;99747.63;5055631;28;45614;-54
2022/03/30 02:23:41;;;;;;;;;67.25;50.75;;;;;13.24;66.86;99749.31;5056419;28;45370;-49
2022/03/30 02:26:07;;;;;;;;;55.50;46.00;;;;;13.20;66.81;99751.41;5018353;28;45918;-50
2022/03/30 02:28:32;;;;;;;;;63.25;50.75;;;;;13.06;67.44;99732.09;5051115;28;46837;-59
2022/03/30 02:30:58;;;;;;;;;62.75;51.50;;;;;13.08;67.86;99744.34;5053412;28;45469;-54
2022/03/30 02:33:24;;;;;;;;;68.25;50.00;;;;;13.05;67.54;99741.06;5056827;28;46242;-52
2022/03/30 02:35:50;;;;;;;;;65.75;52.75;;;;;13.05;67.72;99738.41;5056547;28;45328;-51
2022/03/30 02:38:16;;;;;;;;;64.50;52.75;;;;;13.05;67.47;99738.41;5055502;28;45559;-49
2022/03/30 02:40:41;;;;;;;;;63.75;49.75;;;;;13.02;67.82;99734.16;5056343;28;45487;-53
2022/03/30 02:43:07;;;;;;;;;67.75;49.75;;;;;13.00;67.84;99734.25;5056640;28;45343;-52
2022/03/30 02:45:32;;;;;;;;;66.00;49.75;;;;;13.02;67.65;99730.63;5021794;28;45404;-52
2022/03/30 02:50:44;;;;;;;;;68.25;51.50;;;;;12.96;68.01;99729.28;5056799;28;45493;-52
2022/03/30 02:53:10;;;;;;;;;60.00;49.50;;;;;12.95;67.69;99727.59;5056446;28;45434;-51
2022/03/30 02:55:35;;;;;;;;;59.75;49.75;;;;;12.95;68.41;99728.44;5056452;28;45828;-54
2022/03/30 02:58:01;;;;;;;;;66.00;51.75;;;;;12.90;68.44;99729.81;5055200;28;45513;-52
2022/03/30 03:00:27;;;;;;;;;68.25;53.00;;;;;12.87;68.42;99714.84;5055962;28;45523;-54
2022/03/30 03:02:53;;;;;;;;;63.75;49.00;;;;;12.85;69.21;99714.13;5054203;28;45442;-51
2022/03/30 03:05:18;;;;;;;;;60.75;48.00;;;;;12.85;69.37;99719.47;5056022;28;45331;-53
2022/03/30 03:07:44;;;;;;;;;68.50;53.50;;;;;12.82;69.88;99722.38;5056075;28;45244;-52
2022/03/30 03:10:09;;;;;;;;;72.75;53.25;;;;;12.81;69.57;99720.69;5056452;28;45562;-52
2022/03/30 03:12:35;;;;;;;;;68.50;52.25;;;;;12.74;70.49;99723.94;5055599;28;46045;-52
2022/03/30 03:15:00;;;;;;;;;65.75;52.00;;;;;12.64;69.68;99713.19;5056288;28;45450;-51
2022/03/30 03:17:26;;;;;;;;;66.75;53.25;;;;;12.74;69.57;99731.94;5054968;28;45347;-56
2022/03/30 03:19:51;;;;;;;;;70.25;55.50;;;;;12.78;69.65;99720.94;5055397;28;45319;-52
2022/03/30 03:22:17;;;;;;;;;69.75;52.00;;;;;12.80;68.73;99724.34;5055345;28;45407;-56
2022/03/30 03:24:42;;;;;;;;;67.25;54.00;;;;;12.70;70.04;99708.19;5055824;28;45521;-56
2022/03/30 03:27:08;;;;;;;;;68.00;51.25;;;;;12.72;69.95;99716.06;5056000;28;45352;-55
2022/03/30 03:29:33;;;;;;;;;67.00;54.75;;;;;12.67;70.32;99718.25;5054814;28;45508;-54
2022/03/30 03:31:58;;;;;;;;;63.25;51.50;;;;;12.64;69.73;99714.03;5055748;28;45488;-53
2022/03/30 03:34:24;;;;;;;;;67.75;51.25;;;;;12.67;69.71;99715.59;5055718;28;45440;-54
2022/03/30 03:36:49;;;;;;;;;71.25;52.50;;;;;12.74;69.37;99711.47;5054893;28;45486;-54
2022/03/30 03:39:15;;;;;;;;;66.00;52.00;;;;;12.75;69.43;99702.47;5056305;28;45545;-57
2022/03/30 03:41:40;;;;;;;;;68.75;51.75;;;;;12.80;69.14;99710.16;5054490;28;45415;-54
2022/03/30 03:44:06;;;;;;;;;72.50;51.50;;;;;12.71;69.47;99693.03;5055363;28;45327;-50
2022/03/30 03:46:31;;;;;;;;;71.75;56.00;;;;;12.71;69.37;99685.03;5055691;28;45279;-55
2022/03/30 03:48:57;;;;;;;;;63.00;49.00;;;;;12.77;69.91;99708.56;5037549;28;45413;-55
2022/03/30 03:51:23;;;;;;;;;71.00;54.00;;;;;12.71;70.20;99701.03;5036418;28;45511;-56
2022/03/30 03:53:49;;;;;;;;;62.50;51.25;;;;;12.55;71.10;99692.56;5036654;28;45289;-54
2022/03/30 03:56:14;;;;;;;;;65.50;53.00;;;;;12.53;70.45;99684.69;5037379;28;45326;-51
2022/03/30 03:58:40;;;;;;;;;68.50;55.00;;;;;12.63;70.39;99695.44;5055172;28;45457;-54
2022/03/30 04:01:06;;;;;;;;;68.75;51.00;;;;;12.65;70.67;99690.88;5053608;28;45406;-53
2022/03/30 04:03:31;;;;;;;;;73.00;54.50;;;;;12.69;69.77;99692.31;5037533;28;45769;-54
2022/03/30 04:05:57;;;;;;;;;70.75;55.00;;;;;12.72;69.62;99693.88;5055554;28;45225;-52
2022/03/30 04:08:22;;;;;;;;;68.75;53.75;;;;;12.73;69.42;99696.41;5054620;28;46038;-53
2022/03/30 04:10:48;;;;;;;;;72.75;55.75;;;;;12.62;69.27;99675.94;5055939;28;45354;-54
2022/03/30 04:13:13;;;;;;;;;70.75;54.00;;;;;12.73;69.57;99685.75;5055607;28;45520;-55
2022/03/30 04:15:39;;;;;;;;;74.50;53.25;;;;;12.74;69.88;99689.25;5057313;28;45473;-55
2022/03/30 04:18:04;;;;;;;;;69.75;55.50;;;;;12.69;69.88;99686.97;5051471;28;45382;-53
2022/03/30 04:20:31;;;;;;;;;66.00;53.00;;;;;12.75;69.44;99678.47;5059531;28;45330;-54
2022/03/30 04:22:57;;;;;;;;;70.75;54.25;;;;;12.79;69.17;99690.63;5058657;28;45494;-54
2022/03/30 04:25:23;;;;;;;;;73.25;55.00;;;;;12.80;69.15;99681.63;5058682;28;45483;-56
2022/03/30 04:27:50;;;;;;;;;73.00;53.00;;;;;12.81;69.08;99680.66;5058469;28;45382;-59
2022/03/30 04:30:17;;;;;;;;;64.75;54.50;;;;;12.82;69.05;99679.69;5057713;28;46257;-54
2022/03/30 04:32:44;;;;;;;;;75.75;56.25;;;;;12.82;68.71;99679.69;5050533;28;46202;-52
2022/03/30 04:35:11;;;;;;;;;74.25;56.75;;;;;12.84;68.90;99677.75;5054765;28;45415;-53
2022/03/30 04:37:39;;;;;;;;;72.25;56.75;;;;;12.78;69.16;99672.91;5037517;28;45400;-55
2022/03/30 04:40:05;;;;;;;;;68.50;52.25;;;;;12.88;68.90;99681.84;5045683;28;45340;-52
2022/03/30 04:42:30;;;;;;;;;65.50;51.75;;;;;12.90;68.71;99671.94;5055113;28;45403;-54
2022/03/30 04:44:56;;;;;;;;;69.50;55.75;;;;;12.92;68.99;99675.31;5049662;28;45574;-52
2022/03/30 04:47:21;;;;;;;;;73.25;56.25;;;;;12.89;68.61;99675.56;5058654;28;45415;-52
2022/03/30 04:49:47;;;;;;;;;73.25;57.00;;;;;12.88;68.47;99671.19;5046697;28;46091;-54
2022/03/30 04:52:13;;;;;;;;;76.00;56.75;;;;;12.88;68.76;99668.50;5036964;28;45470;-54
2022/03/30 04:54:38;;;;;;;;;71.50;57.00;;;;;12.83;68.04;99644.03;5038772;28;45426;-56
2022/03/30 04:57:03;;;;;;;;;78.00;59.50;;;;;12.91;68.44;99652.28;5040981;28;45426;-55
2022/03/30 04:59:29;;;;;;;;;71.25;56.25;;;;;12.91;68.65;99652.28;5058363;28;45396;-54
2022/03/30 05:01:54;;;;;;;;;74.25;54.25;;;;;12.91;68.86;99652.28;5054013;28;45398;-56
2022/03/30 05:04:20;;;;;;;;;68.00;55.00;;;;;12.91;68.48;99646.94;5058561;28;45256;-55
2022/03/30 05:06:45;;;;;;;;;65.00;51.75;;;;;12.97;68.60;99649.09;5058998;28;45422;-54
2022/03/30 05:09:12;;;;;;;;;63.00;53.00;;;;;12.98;68.22;99658.81;5045322;28;46102;-51
2022/03/30 05:11:39;;;;;;;;;72.75;57.25;;;;;13.02;68.24;99653.22;5039996;28;46683;-52
2022/03/30 05:14:05;;;;;;;;;72.75;55.00;;;;;13.05;68.20;99647.66;5057592;28;45399;-59
2022/03/30 05:16:31;;;;;;;;;69.00;53.25;;;;;13.08;68.03;99647.38;5059094;28;45273;-52
2022/03/30 05:18:56;;;;;;;;;69.00;55.00;;;;;13.09;67.93;99649.94;5043741;28;46378;-53
2022/03/30 05:21:22;;;;;;;;;75.50;57.25;;;;;13.02;68.76;99645.19;5058403;28;45284;-55
2022/03/30 05:23:48;;;;;;;;;77.75;59.75;;;;;12.95;69.08;99647.53;5040130;28;45527;-56
2022/03/30 05:26:14;;;;;;;;;78.00;57.00;;;;;12.93;69.67;99645.00;5045799;28;45372;-56
2022/03/30 05:28:40;;;;;;;;;72.00;53.25;;;;;12.82;69.32;99617.47;5049262;28;46000;-52
2022/03/30 05:31:06;;;;;;;;;69.75;53.25;;;;;12.96;69.85;99650.06;5036269;28;45530;-55
2022/03/30 05:33:32;;;;;;;;;71.00;53.75;;;;;12.86;69.54;99649.13;5059083;28;46937;-53
2022/03/30 05:35:58;;;;;;;;;71.75;54.50;;;;;12.89;69.75;99648.91;5012792;28;45545;-52
2022/03/30 05:38:24;;;;;;;;;68.75;55.00;;;;;12.95;70.10;99659.06;5028234;28;45337;-52
2022/03/30 05:40:50;;;;;;;;;75.50;56.25;;;;;12.94;69.98;99657.38;5056488;28;45520;-53
2022/03/30 05:43:16;;;;;;;;;68.00;52.75;;;;;12.91;69.59;99652.28;5057805;28;45484;-52
2022/03/30 05:45:42;;;;;;;;;74.75;57.50;;;;;12.91;69.83;99657.63;5057605;28;45546;-53
2022/03/30 05:48:08;;;;;;;;;66.25;51.75;;;;;12.91;69.88;99652.28;5057434;28;46059;-57
2022/03/30 05:50:34;;;;;;;;;77.75;57.25;;;;;12.93;70.35;99661.00;5058137;28;45580;-56
2022/03/30 05:52:59;;;;;;;;;67.25;53.25;;;;;12.88;70.58;99651.66;5057052;28;45213;-53
2022/03/30 05:55:25;;;;;;;;;70.50;55.50;;;;;12.86;70.14;99664.28;5057747;28;45362;-55
2022/03/30 05:57:50;;;;;;;;;72.00;55.00;;;;;12.89;70.32;99659.56;5037901;28;45308;-56
2022/03/30 06:00:16;;;;;;;;;71.00;55.75;;;;;12.87;70.84;99657.97;5056127;28;45537;-53
2022/03/30 06:02:42;;;;;;;;;72.50;55.00;;;;;12.74;71.10;99660.78;5056971;28;45528;-54
2022/03/30 06:05:09;;;;;;;;;73.00;53.50;;;;;12.66;71.56;99657.88;5023261;28;45486;-54
2022/03/30 06:07:34;;;;;;;;;78.50;58.75;;;;;12.65;71.91;99675.72;5057600;28;45338;-55
2022/03/30 06:10:02;;;;;;;;;68.25;56.25;;;;;12.68;71.19;99671.94;5057198;28;45380;-53
2022/03/30 06:12:28;;;;;;;;;77.50;59.25;;;;;12.73;71.12;99675.09;5057193;28;45497;-55
2022/03/30 06:14:54;;;;;;;;;73.75;56.50;;;;;12.75;72.06;99674.97;5055922;28;45517;-53
2022/03/30 06:17:20;;;;;;;;;73.25;57.25;;;;;12.72;71.26;99664.53;5037910;28;46002;-56
2022/03/30 06:19:51;;;;;;;;;74.00;57.00;;;;;12.63;71.18;99663.44;5060305;28;45281;-59
2022/03/30 06:22:17;;;;;;;;;81.00;61.00;;;;;12.72;71.04;99678.72;5045295;28;45339;-57
2022/03/30 06:24:43;;;;;;;;;78.00;58.00;;;;;12.71;71.51;99679.69;5053821;28;45581;-54
2022/03/30 06:27:12;;;;;;;;;78.00;61.25;;;;;12.70;71.18;99680.66;5039047;28;47876;-57
2022/03/30 06:29:39;;;;;;;;;79.25;59.25;;;;;12.65;71.17;99672.19;5057671;28;46994;-53
2022/03/30 06:32:07;;;;;;;;;78.50;57.75;;;;;12.54;70.93;99648.19;5056923;28;45355;-56
2022/03/30 06:34:33;;;;;;;;;73.75;58.75;;;;;12.53;70.76;99646.50;5039898;28;45653;-56
2022/03/30 06:37:05;;;;;;;;;74.00;57.00;;;;;12.76;70.74;99679.31;5035627;28;47927;-53
2022/03/30 06:39:32;;;;;;;;;77.50;60.25;;;;;12.71;70.65;99674.34;5051473;28;45371;-55
2022/03/30 06:41:58;;;;;;;;;71.25;56.00;;;;;12.73;70.86;99684.91;5057341;28;45425;-54
2022/03/30 06:44:23;;;;;;;;;72.25;55.75;;;;;12.59;71.12;99657.50;5057145;28;45413;-54
2022/03/30 06:46:49;;;;;;;;;79.75;60.00;;;;;12.68;71.31;99671.94;5056903;28;46281;-54
2022/03/30 06:49:14;;;;;;;;;77.75;60.25;;;;;12.63;71.04;99658.09;5037828;28;45435;-55
2022/03/30 06:51:40;;;;;;;;;72.75;58.00;;;;;12.67;71.16;99670.25;5055156;28;45577;-54
2022/03/30 06:54:06;;;;;;;;;76.50;61.25;;;;;12.69;71.95;99673.63;5038717;28;45463;-55
2022/03/30 06:56:31;;;;;;;;;86.75;62.25;;;;;12.74;71.67;99695.44;5026364;28;45645;-56
2022/03/30 06:58:57;;;;;;;;;75.00;60.00;;;;;12.72;70.87;99689.38;5036418;28;45267;-54
2022/03/30 07:01:22;;;;;;;;;81.75;61.25;;;;;12.74;71.30;99691.94;5036849;28;45359;-53
2022/03/30 07:03:48;;;;;;;;;79.50;61.25;;;;;12.64;71.19;99678.50;5035588;28;45246;-55
2022/03/30 07:06:13;;;;;;;;;81.25;62.00;;;;;12.73;71.13;99696.41;5036453;28;45329;-55
2022/03/30 07:11:32;;;;;;;;;73.75;58.75;;;;;12.69;71.03;99694.97;5005678;28;45416;-53
2022/03/30 07:13:58;;;;;;;;;78.00;58.00;;;;;12.76;70.54;99685.53;4988128;28;45556;-55
2022/03/30 07:16:24;;;;;;;;;84.75;65.75;;;;;12.70;71.03;99667.31;4988575;27;45257;-52
2022/03/30 07:18:50;;;;;;;;;71.25;57.25;;;;;12.87;70.92;99701.50;5058284;27;45234;-53
2022/03/30 07:21:16;;;;;;;;;90.25;74.50;;;;;12.83;71.42;99689.41;5093324;27;46249;-53
2022/03/30 07:23:42;;;;;;;;;116.67;104.00;;;;;12.77;72.24;99697.91;5093168;27;45301;-54
2022/03/30 07:26:07;;;;;;;;;86.00;68.25;;;;;12.67;73.07;99680.91;5093460;27;45513;-53
2022/03/30 07:28:35;;;;;;;;;79.75;60.50;;;;;12.68;73.23;99694.13;5093565;27;45295;-59
2022/03/30 07:31:01;;;;;;;;;77.25;58.00;;;;;12.64;72.33;99692.69;5093553;27;45429;-55
2022/03/30 07:33:27;;;;;;;;;68.75;54.50;;;;;12.60;73.34;99695.69;5093986;27;45391;-53
2022/03/30 07:35:52;;;;;;;;;80.25;61.75;;;;;12.48;75.06;99673.50;5093871;27;45367;-51
2022/03/30 07:38:19;;;;;;;;;73.00;56.25;;;;;12.57;74.81;99688.78;5093283;27;45341;-54
2022/03/30 07:40:47;;;;;;;;;75.25;57.25;;;;;12.60;75.79;99687.69;5092723;27;45432;-54
2022/03/30 07:43:13;;;;;;;;;78.50;59.25;;;;;12.49;76.38;99685.00;5093323;27;45337;-53
2022/03/30 07:45:39;;;;;;;;;90.75;70.75;;;;;12.45;78.65;99680.91;5093700;27;45373;-55
2022/03/30 07:48:06;;;;;;;;;75.50;59.00;;;;;12.34;79.33;99671.91;5093048;27;45462;-54
2022/03/30 07:50:31;;;;;;;;;78.75;59.00;;;;;12.28;78.69;99677.75;5092476;27;46271;-55
2022/03/30 07:52:57;;;;;;;;;76.50;58.75;;;;;12.18;79.59;99674.06;5016874;27;45475;-53
2022/03/30 07:55:24;;;;;;;;;76.50;60.25;;;;;12.24;79.77;99689.63;4969878;28;45354;-55
2022/03/30 07:57:50;;;;;;;;;76.50;59.25;;;;;12.22;79.32;99691.53;4969836;28;45643;-53
2022/03/30 08:00:17;;;;;;;;;75.50;58.00;;;;;12.09;78.63;99685.44;4969861;28;45353;-52
2022/03/30 08:02:44;;;;;;;;;67.75;49.00;;;;;11.96;78.79;99679.34;4969756;28;45298;-54
2022/03/30 08:05:11;;;;;;;;;79.75;58.25;;;;;11.95;78.79;99682.97;4969795;28;45399;-57
2022/03/30 08:07:37;;;;;;;;;77.00;60.25;;;;;11.81;79.33;99684.03;4969613;28;45667;-53
2022/03/30 08:10:03;;;;;;;;;75.00;59.00;;;;;11.84;79.37;99689.13;4969007;28;45406;-54
2022/03/30 08:12:29;;;;;;;;;81.75;62.50;;;;;11.75;79.13;99679.16;4968158;28;45427;-53
2022/03/30 08:14:54;;;;;;;;;75.25;58.25;;;;;11.77;79.21;99695.84;4969607;28;45313;-55
2022/03/30 08:17:20;;;;;;;;;77.75;58.50;;;;;11.76;78.98;99686.16;4975161;27;45204;-54
2022/03/30 08:19:47;;;;;;;;;79.50;59.00;;;;;11.78;78.41;99687.75;5092295;27;45432;-53
2022/03/30 08:22:30;;;;;;;;;74.25;56.75;;;;;11.70;78.64;99687.47;5081321;27;45296;-53
2022/03/30 08:25:00;;;;;;;;;84.50;62.00;;;;;11.62;79.57;99681.03;5078528;27;45346;-54
2022/03/30 08:27:27;;;;;;;;;79.75;60.25;;;;;11.72;79.45;99692.69;5077395;28;45381;-54
2022/03/30 08:29:54;;;;;;;;;81.25;61.75;;;;;11.79;79.67;99693.97;5078294;27;46359;-54
2022/03/30 08:32:21;;;;;;;;;79.75;60.75;;;;;11.77;79.78;99702.03;5063248;27;45378;-53
2022/03/30 08:34:48;;;;;;;;;68.50;56.75;;;;;11.80;78.50;99691.16;5078959;27;45308;-53
2022/03/30 08:37:14;;;;;;;;;80.00;60.25;;;;;11.83;80.60;99690.09;5079750;27;45548;-51
2022/03/30 08:39:40;;;;;;;;;80.50;62.00;;;;;11.78;82.34;99698.41;5077981;28;47914;-53
2022/03/30 08:42:08;;;;;;;;;76.75;59.00;;;;;11.69;81.93;99699.09;5078056;28;45434;-55
2022/03/30 08:44:35;;;;;;;;;76.50;61.00;;;;;11.69;82.32;99687.59;5078865;27;45360;-52
2022/03/30 08:47:01;;;;;;;;;78.25;60.75;;;;;11.68;81.99;99685.88;5078871;27;45335;-56
2022/03/30 08:49:37;;;;;;;;;87.50;62.50;;;;;11.65;82.20;99681.66;5077009;27;47623;-53
2022/03/30 08:52:05;;;;;;;;;83.00;61.75;;;;;11.58;84.20;99674.22;5078356;27;45254;-54
2022/03/30 08:54:31;;;;;;;;;80.00;63.00;;;;;11.62;85.45;99687.22;5078401;27;45768;-53
2022/03/30 08:56:56;;;;;;;;;85.25;62.25;;;;;11.52;85.27;99686.19;5078712;28;45597;-54
2022/03/30 08:59:24;;;;;;;;;85.25;66.00;;;;;11.45;85.51;99671.63;5077231;28;45474;-55
2022/03/30 09:01:52;;;;;;;;;77.25;58.50;;;;;11.52;84.15;99683.53;5077628;28;45423;-54
2022/03/30 09:04:19;;;;;;;;;76.50;58.25;;;;;11.49;84.93;99681.94;5078337;27;45180;-54
2022/03/30 09:06:50;;;;;;;;;83.00;60.50;;;;;11.58;85.06;99682.19;5077496;28;45355;-56
2022/03/30 09:09:26;;;;;;;;;82.25;62.25;;;;;11.57;84.13;99684.03;5076734;28;46779;-53
2022/03/30 09:11:55;;;;;;;;;78.25;60.00;;;;;11.56;81.69;99682.31;5078208;27;45265;-54
2022/03/30 09:14:24;;;;;;;;;80.75;62.00;;;;;11.61;82.55;99680.19;5076536;28;45347;-54
2022/03/30 09:16:55;;;;;;;;;82.50;64.00;;;;;11.70;82.38;99689.28;5078366;27;45637;-52
2022/03/30 09:19:22;;;;;;;;;82.25;63.25;;;;;11.63;81.24;99678.25;4987751;27;45523;-54
2022/03/30 09:21:51;;;;;;;;;85.00;63.25;;;;;11.62;80.03;99681.88;4975287;28;45351;-53
2022/03/30 09:24:23;;;;;;;;;75.25;60.25;;;;;11.66;80.17;99687.81;4974158;28;45304;-51
2022/03/30 09:26:51;;;;;;;;;77.50;56.50;;;;;11.60;80.23;99664.31;4975036;28;45432;-54
2022/03/30 09:29:20;;;;;;;;;81.75;61.00;;;;;11.77;79.32;99686.06;4973891;28;45321;-55
2022/03/30 09:31:47;;;;;;;;;81.75;62.50;;;;;11.90;79.29;99685.16;4974202;28;45611;-54
2022/03/30 09:34:12;;;;;;;;;70.00;58.50;;;;;11.92;79.04;99688.56;4973768;28;45705;-54
2022/03/30 09:36:40;;;;;;;;;84.25;59.50;;;;;11.89;78.82;99680.78;4973727;28;45406;-53
2022/03/30 09:39:09;;;;;;;;;70.25;52.75;;;;;12.03;78.76;99692.09;4974665;28;46145;-52
2022/03/30 09:41:45;;;;;;;;;79.75;57.50;;;;;12.10;78.53;99687.13;4974424;28;45275;-53
2022/03/30 09:44:11;;;;;;;;;77.25;57.50;;;;;12.19;78.88;99691.75;4974887;28;45378;-54
2022/03/30 09:47:05;;;;;;;;;85.25;64.25;;;;;12.27;76.89;99686.72;4975542;28;45515;-53
2022/03/30 09:49:54;;;;;;;;;87.00;65.25;;;;;12.34;78.19;99685.25;4990295;28;45375;-54
2022/03/30 09:52:24;;;;;;;;;75.00;59.50;;;;;12.50;77.53;99678.72;4967507;28;45200;-51
2022/03/30 09:54:55;;;;;;;;;82.00;61.75;;;;;12.65;76.46;99688.19;4955786;28;45366;-55
2022/03/30 09:57:29;;;;;;;;;86.75;61.50;;;;;12.73;75.12;99680.41;4955782;28;45341;-55
2022/03/30 10:00:07;;;;;;;;;81.75;61.75;;;;;12.86;75.43;99681.13;4953602;28;45469;-54
2022/03/30 10:02:41;;;;;;;;;77.75;60.25;;;;;12.97;75.43;99681.13;4953441;28;45347;-54
2022/03/30 10:05:25;;;;;;;;;76.50;58.50;;;;;13.11;74.97;99681.84;4955035;28;45351;-53
2022/03/30 10:07:52;;;;;;;;;76.50;60.50;;;;;13.19;73.63;99676.78;4955157;27;45641;-53
2022/03/30 10:10:22;;;;;;;;;77.00;59.25;;;;;13.23;73.93;99664.84;4954864;28;47056;-55
2022/03/30 10:12:48;;;;;;;;;74.50;57.50;;;;;13.37;73.49;99677.06;4954983;28;45480;-56
2022/03/30 10:15:14;;;;;;;;;75.25;57.75;;;;;13.40;73.08;99675.00;4955019;28;45346;-54
2022/03/30 10:17:39;;;;;;;;;75.50;59.00;;;;;13.43;73.34;99674.75;4976309;28;45208;-53
2022/03/30 10:20:08;;;;;;;;;74.50;58.00;;;;;13.44;72.33;99670.28;5075580;28;46034;-54
2022/03/30 10:22:49;;;;;;;;;83.00;60.75;;;;;13.55;72.92;99668.41;5076796;28;45440;-54
2022/03/30 10:25:26;;;;;;;;;79.75;60.25;;;;;13.67;72.42;99671.00;5076871;27;45523;-56
2022/03/30 10:27:55;;;;;;;;;85.00;67.25;;;;;13.82;71.20;99669.75;5061650;27;45338;-52
2022/03/30 10:30:27;;;;;;;;;77.50;58.75;;;;;13.80;70.47;99664.53;5092222;27;47614;-53
2022/03/30 10:32:58;;;;;;;;;80.00;61.25;;;;;13.83;71.06;99666.09;5075085;27;45476;-54
2022/03/30 10:35:44;;;;;;;;;76.25;61.00;;;;;13.81;70.26;99662.72;5091861;27;45526;-52
2022/03/30 10:38:10;;;;;;;;;76.75;60.00;;;;;13.89;71.53;99665.56;5077015;27;45517;-55
2022/03/30 10:40:37;;;;;;;;;76.00;56.50;;;;;13.98;69.75;99653.25;5076543;28;46106;-53
2022/03/30 10:43:24;;;;;;;;;74.25;58.00;;;;;14.02;69.14;99655.53;5076566;27;45515;-58
2022/03/30 10:46:02;;;;;;;;;74.50;56.25;;;;;14.06;68.34;99646.28;5076345;27;45332;-52
2022/03/30 10:48:34;;;;;;;;;80.00;59.25;;;;;14.18;68.49;99650.56;5075395;28;45311;-52
2022/03/30 10:51:08;;;;;;;;;79.25;60.00;;;;;14.26;68.48;99646.38;5076220;27;45939;-51
2022/03/30 10:53:35;;;;;;;;;76.00;59.25;;;;;14.30;68.21;99643.31;5076592;27;45397;-50
2022/03/30 10:56:09;;;;;;;;;72.50;59.00;;;;;14.28;67.23;99634.56;5077065;27;45397;-52
2022/03/30 10:58:35;;;;;;;;;72.00;54.50;;;;;14.21;67.70;99643.28;5076825;27;45450;-55
2022/03/30 11:01:18;;;;;;;;;76.75;58.25;;;;;14.30;68.60;99629.09;5076302;27;45465;-55
2022/03/30 11:04:02;;;;;;;;;75.25;55.00;;;;;14.44;67.53;99626.09;5076141;27;45480;-52
2022/03/30 11:06:30;;;;;;;;;74.75;56.25;;;;;14.49;66.94;99621.22;5075994;27;45391;-53
2022/03/30 11:08:57;;;;;;;;;72.75;56.50;;;;;14.49;65.75;99618.53;5074605;27;45367;-54
2022/03/30 11:11:40;;;;;;;;;80.00;60.50;;;;;14.57;66.24;99617.84;5075535;28;45351;-54
2022/03/30 11:14:25;;;;;;;;;69.75;53.25;;;;;14.60;66.08;99601.53;5075987;27;45456;-53
2022/03/30 11:16:54;;;;;;;;;73.75;57.00;;;;;14.57;65.62;99607.97;5076409;27;45309;-53
2022/03/30 11:19:22;;;;;;;;;79.00;61.00;;;;;14.57;65.51;99613.34;4987634;27;45189;-53
2022/03/30 11:22:09;;;;;;;;;73.00;53.25;;;;;14.70;65.15;99613.94;4972379;28;47793;-53
2022/03/30 11:24:35;;;;;;;;;74.00;55.75;;;;;14.73;63.61;99616.38;4973399;28;45487;-51
2022/03/30 11:27:01;;;;;;;;;73.00;54.25;;;;;14.82;63.28;99600.44;4973292;28;45406;-53
2022/03/30 11:30:00;;;;;;;;;70.75;54.75;;;;;14.83;62.78;99597.63;4971188;28;45485;-55